Terminal Aerodrome Forecast
Issued by NWS

Home | Current Version | Previous Version | Text Only | Print | Product List | Glossary On
Versions: 1 2 3 4 5 6 7 8 9 10 11 12 13 14 15 16 17
000
FTUS45 KTFX 221100
TAFCTB
TAF
KCTB 221131Z 2212/2312 20010KT P6SM SCT090 BKN150
     FM221500 26020G30KT P6SM BKN150
     FM221800 26030G40KT P6SM BKN150
     FM230300 28020G30KT P6SM BKN150
     FM230600 31015KT P6SM SCT150=

USA.gov is the U.S. government's official web portal to all federal, state and local government web resources and services.